createdAt,value
2023-02-22T00:01:28.314Z,11.27
2023-02-22T00:03:54.929Z,17.73
2023-02-22T00:06:24.973Z,19.30
2023-02-22T00:08:55.675Z,18.43
2023-02-22T00:11:22.338Z,16.20
2023-02-22T00:13:50.550Z,15.17
2023-02-22T00:16:20.008Z,18.67
2023-02-22T00:18:46.765Z,18.37
2023-02-22T00:21:15.030Z,17.27
2023-02-22T00:23:46.579Z,19.90
2023-02-22T00:26:19.737Z,17.70
2023-02-22T00:28:48.914Z,15.60
2023-02-22T00:31:16.246Z,17.63
2023-02-22T00:33:43.498Z,16.93
2023-02-22T00:36:12.078Z,17.60
2023-02-22T00:38:39.440Z,17.67
2023-02-22T00:41:06.168Z,16.00
2023-02-22T00:43:33.438Z,22.80
2023-02-22T00:46:00.170Z,20.23
2023-02-22T00:48:26.811Z,21.80
2023-02-22T00:50:55.218Z,17.10
2023-02-22T00:53:23.784Z,16.10
2023-02-22T00:55:50.529Z,17.90
2023-02-22T00:58:17.090Z,19.93
2023-02-22T01:00:43.936Z,20.67
2023-02-22T01:03:13.219Z,16.80
2023-02-22T01:05:40.121Z,19.37
2023-02-22T01:08:08.664Z,17.63
2023-02-22T01:10:36.262Z,17.50
2023-02-22T01:13:08.416Z,16.03
2023-02-22T01:15:36.967Z,17.37
2023-02-22T01:18:05.067Z,12.10
2023-02-22T01:20:32.434Z,22.37
2023-02-22T01:23:03.346Z,14.23
2023-02-22T01:25:31.114Z,15.93
2023-02-22T01:27:59.141Z,16.90
2023-02-22T01:30:32.920Z,18.87
2023-02-22T01:33:01.035Z,15.33
2023-02-22T01:35:31.070Z,15.83
2023-02-22T01:37:58.394Z,17.27
2023-02-22T01:40:33.734Z,12.40
2023-02-22T01:43:03.987Z,19.70
2023-02-22T01:45:30.692Z,20.23
2023-02-22T01:48:17.182Z,21.60
2023-02-22T01:51:00.814Z,22.20
2023-02-22T01:53:34.612Z,22.57
2023-02-22T01:56:02.169Z,17.23
2023-02-22T01:58:31.704Z,18.27
2023-02-22T02:00:58.317Z,15.23
2023-02-22T02:03:30.035Z,20.30
2023-02-22T02:06:01.406Z,18.30
2023-02-22T02:08:51.537Z,17.97
2023-02-22T02:11:22.626Z,16.33
2023-02-22T02:13:57.118Z,19.67
2023-02-22T02:16:26.128Z,20.83
2023-02-22T02:18:53.510Z,17.37
2023-02-22T02:21:50.752Z,19.87
2023-02-22T02:24:31.158Z,20.43
2023-02-22T02:27:18.023Z,17.07
2023-02-22T02:30:00.005Z,15.07
2023-02-22T02:32:40.610Z,18.17
2023-02-22T02:35:48.961Z,12.30
2023-02-22T02:38:45.278Z,15.10
2023-02-22T02:41:24.068Z,18.90
2023-02-22T02:43:57.329Z,14.57
2023-02-22T02:46:39.158Z,19.60
2023-02-22T02:49:31.080Z,19.27
2023-02-22T02:51:59.552Z,15.90
2023-02-22T02:54:26.449Z,14.90
2023-02-22T02:56:53.114Z,18.57
2023-02-22T02:59:28.981Z,22.70
2023-02-22T03:02:00.739Z,15.63
2023-02-22T03:04:42.462Z,17.27
2023-02-22T03:07:35.278Z,19.43
2023-02-22T03:10:14.340Z,20.33
2023-02-22T03:12:46.974Z,13.53
2023-02-22T03:15:25.580Z,18.27
2023-02-22T03:18:06.699Z,19.13
2023-02-22T03:20:55.422Z,16.53
2023-02-22T03:23:53.795Z,20.27
2023-02-22T03:26:25.722Z,14.97
2023-02-22T03:28:55.892Z,15.17
2023-02-22T03:31:29.415Z,18.10
2023-02-22T03:34:02.555Z,19.00
2023-02-22T03:36:33.837Z,17.63
2023-02-22T03:39:04.181Z,17.43
2023-02-22T03:41:33.265Z,16.80
2023-02-22T03:44:05.409Z,18.37
2023-02-22T03:46:33.013Z,16.63
2023-02-22T03:49:09.550Z,16.10
2023-02-22T03:51:36.604Z,22.10
2023-02-22T03:54:04.537Z,19.47
2023-02-22T03:56:37.881Z,19.23
2023-02-22T03:59:07.079Z,13.10
2023-02-22T04:01:34.060Z,17.23
2023-02-22T04:04:00.949Z,17.60
2023-02-22T04:06:28.462Z,17.70
2023-02-22T04:08:55.082Z,17.27
2023-02-22T04:11:21.963Z,16.03
2023-02-22T04:13:48.578Z,17.10
2023-02-22T04:16:15.297Z,14.83
2023-02-22T04:18:41.948Z,15.70
2023-02-22T04:21:09.239Z,19.50
2023-02-22T04:23:36.069Z,17.97
2023-02-22T04:26:03.470Z,16.00
2023-02-22T04:28:30.008Z,17.77
2023-02-22T04:30:56.645Z,13.80
2023-02-22T04:33:23.352Z,15.67
2023-02-22T04:35:51.595Z,18.73
2023-02-22T04:38:18.406Z,14.97
2023-02-22T04:40:45.287Z,18.80
2023-02-22T04:43:11.841Z,16.47
2023-02-22T04:45:38.371Z,19.50
2023-02-22T04:48:05.036Z,14.00
2023-02-22T04:50:31.635Z,23.33
2023-02-22T04:52:58.277Z,15.20
2023-02-22T04:55:24.918Z,17.60
2023-02-22T04:57:51.601Z,14.17
2023-02-22T05:00:21.710Z,15.20
2023-02-22T05:02:49.643Z,26.23
2023-02-22T05:05:17.696Z,16.33
2023-02-22T05:07:44.415Z,20.30
2023-02-22T05:10:11.631Z,18.63
2023-02-22T05:12:38.302Z,17.53
2023-02-22T05:15:07.112Z,14.07
2023-02-22T05:17:34.408Z,16.97
2023-02-22T05:20:01.591Z,13.77
2023-02-22T05:22:28.248Z,12.83
2023-02-22T05:24:55.754Z,23.57
2023-02-22T05:27:22.512Z,18.83
2023-02-22T05:32:39.659Z,13.10
2023-02-22T05:35:08.328Z,17.43
2023-02-22T05:37:35.570Z,17.50
2023-02-22T05:40:02.114Z,16.97
2023-02-22T05:42:28.660Z,19.73
2023-02-22T05:44:55.249Z,20.83
2023-02-22T05:47:21.888Z,19.73
2023-02-22T05:49:48.460Z,16.87
2023-02-22T05:52:15.018Z,15.10
2023-02-22T05:54:41.579Z,18.23
2023-02-22T05:57:08.192Z,18.20
2023-02-22T05:59:34.866Z,19.70
2023-02-22T06:02:01.508Z,22.90
2023-02-22T06:04:28.131Z,19.03
2023-02-22T06:06:54.686Z,19.33
2023-02-22T06:09:21.337Z,24.27
2023-02-22T06:11:50.698Z,19.43
2023-02-22T06:14:17.380Z,27.23
2023-02-22T06:16:44.006Z,16.97
2023-02-22T06:19:14.467Z,16.77
2023-02-22T06:21:48.278Z,21.20
2023-02-22T06:24:14.931Z,21.77
2023-02-22T06:26:41.531Z,21.83
2023-02-22T06:29:08.737Z,20.53
2023-02-22T06:31:35.365Z,20.03
2023-02-22T06:34:02.596Z,19.07
2023-02-22T06:36:29.341Z,22.37
2023-02-22T06:38:58.653Z,27.53
2023-02-22T06:41:25.206Z,23.60
2023-02-22T06:43:51.775Z,27.60
2023-02-22T06:46:19.429Z,27.40
2023-02-22T06:48:46.044Z,29.17
2023-02-22T06:51:12.703Z,22.73
2023-02-22T06:53:39.262Z,32.87
2023-02-22T06:56:06.254Z,26.07
2023-02-22T06:58:32.839Z,29.40
2023-02-22T07:00:59.923Z,24.63
2023-02-22T07:03:26.573Z,23.77
2023-02-22T07:05:53.193Z,19.57
2023-02-22T07:08:19.725Z,22.00
2023-02-22T07:10:46.344Z,26.03
2023-02-22T07:13:12.880Z,23.60
2023-02-22T07:15:39.699Z,20.17
2023-02-22T07:18:07.292Z,19.47
2023-02-22T07:20:34.004Z,22.23
2023-02-22T07:23:01.205Z,19.30
2023-02-22T07:25:27.924Z,17.80
2023-02-22T07:27:57.470Z,19.33
2023-02-22T07:30:32.512Z,20.27
2023-02-22T07:33:01.676Z,24.73
2023-02-22T07:35:36.592Z,22.30
2023-02-22T07:38:06.029Z,19.57
2023-02-22T07:40:32.588Z,24.70
2023-02-22T07:43:01.848Z,22.97
2023-02-22T07:45:33.902Z,22.57
2023-02-22T07:48:02.101Z,24.33
2023-02-22T07:50:31.091Z,17.30
2023-02-22T07:52:59.370Z,23.70
2023-02-22T07:55:28.309Z,17.87
2023-02-22T07:57:57.866Z,24.63
2023-02-22T08:00:27.853Z,24.83
2023-02-22T08:02:55.473Z,22.07
2023-02-22T08:05:25.791Z,21.40
2023-02-22T08:07:52.524Z,21.50
2023-02-22T08:10:22.243Z,23.13
2023-02-22T08:12:49.522Z,18.77
2023-02-22T08:15:20.582Z,20.70
2023-02-22T08:17:47.186Z,24.83
2023-02-22T08:20:13.909Z,20.23
2023-02-22T08:22:43.417Z,17.60
2023-02-22T08:25:10.460Z,18.27
2023-02-22T08:27:37.046Z,18.63
2023-02-22T08:30:04.377Z,17.77
2023-02-22T08:32:31.024Z,14.77
2023-02-22T08:34:57.726Z,21.57
2023-02-22T08:37:24.360Z,21.70
2023-02-22T08:39:53.730Z,22.50
2023-02-22T08:42:20.303Z,27.40
2023-02-22T08:44:46.868Z,23.93
2023-02-22T08:47:13.840Z,16.80
2023-02-22T08:49:40.386Z,22.13
2023-02-22T08:52:06.931Z,17.17
2023-02-22T08:54:33.509Z,21.17
2023-02-22T08:57:00.109Z,25.17
2023-02-22T08:59:27.213Z,20.20
2023-02-22T09:01:53.887Z,21.20
2023-02-22T09:04:20.545Z,19.20
2023-02-22T09:06:51.633Z,17.90
2023-02-22T09:09:21.244Z,18.87
2023-02-22T09:11:52.962Z,20.60
2023-02-22T09:14:19.861Z,17.83
2023-02-22T09:16:46.501Z,19.47
2023-02-22T09:19:13.112Z,21.50
2023-02-22T09:21:40.366Z,23.43
2023-02-22T09:24:10.910Z,18.17
2023-02-22T09:26:42.655Z,26.03
2023-02-22T09:29:09.761Z,24.30
2023-02-22T09:31:40.641Z,19.23
2023-02-22T09:34:13.969Z,23.20
2023-02-22T09:36:46.034Z,17.87
2023-02-22T09:39:15.327Z,15.03
2023-02-22T09:41:51.612Z,15.53
2023-02-22T09:45:12.728Z,19.47
2023-02-22T09:47:42.650Z,18.40
2023-02-22T09:50:17.382Z,18.33
2023-02-22T09:52:59.199Z,17.13
2023-02-22T09:55:48.404Z,27.37
2023-02-22T09:58:36.692Z,19.23
2023-02-22T10:01:15.226Z,17.13
2023-02-22T10:04:11.171Z,18.77
2023-02-22T10:06:42.060Z,16.43
2023-02-22T10:09:11.039Z,20.30
2023-02-22T10:12:02.571Z,24.47
2023-02-22T10:14:47.152Z,20.33
2023-02-22T10:17:36.991Z,20.17
2023-02-22T10:20:21.940Z,18.07
2023-02-22T10:23:04.579Z,19.37
2023-02-22T10:25:36.477Z,15.47
2023-02-22T10:28:30.974Z,17.63
2023-02-22T10:31:01.675Z,17.83
2023-02-22T10:33:33.193Z,19.30
2023-02-22T10:36:00.285Z,17.03
2023-02-22T10:38:32.965Z,17.43
2023-02-22T10:41:19.193Z,22.53
2023-02-22T10:43:45.809Z,16.00
2023-02-22T10:46:16.518Z,20.50
2023-02-22T10:48:47.088Z,13.40
2023-02-22T10:51:13.689Z,14.47
2023-02-22T10:53:40.591Z,22.70
2023-02-22T10:56:12.618Z,14.13
2023-02-22T10:59:02.488Z,13.60
2023-02-22T11:01:31.969Z,18.97
2023-02-22T11:04:04.252Z,17.50
2023-02-22T11:06:33.938Z,13.77
2023-02-22T11:09:10.840Z,17.73
2023-02-22T11:11:40.092Z,14.03
2023-02-22T11:14:10.620Z,15.23
2023-02-22T11:16:51.140Z,16.37
2023-02-22T11:19:23.892Z,17.57
2023-02-22T11:21:53.462Z,14.97
2023-02-22T11:24:24.122Z,18.47
2023-02-22T11:26:56.247Z,13.40
2023-02-22T11:29:36.308Z,16.73
2023-02-22T11:32:13.380Z,20.97
2023-02-22T11:34:42.695Z,15.03
2023-02-22T11:37:34.447Z,13.57
2023-02-22T11:40:15.607Z,12.63
2023-02-22T11:42:42.235Z,17.80
2023-02-22T11:45:23.628Z,18.90
2023-02-22T11:47:56.083Z,17.43
2023-02-22T11:50:28.150Z,17.77
2023-02-22T11:53:25.345Z,18.60
2023-02-22T11:56:04.667Z,18.20
2023-02-22T11:58:56.357Z,17.27
2023-02-22T12:01:43.236Z,18.33
2023-02-22T12:04:39.670Z,12.57
2023-02-22T12:07:26.501Z,15.07
2023-02-22T12:10:19.475Z,12.67
2023-02-22T12:13:17.235Z,16.40
2023-02-22T12:16:11.723Z,13.80
2023-02-22T12:19:01.580Z,16.83
2023-02-22T12:21:29.796Z,14.53
2023-02-22T12:24:07.350Z,16.80
2023-02-22T12:26:44.013Z,22.07
2023-02-22T12:29:44.208Z,15.57
2023-02-22T12:32:32.305Z,18.03
2023-02-22T12:35:16.568Z,15.90
2023-02-22T12:38:10.284Z,19.53
2023-02-22T12:40:53.867Z,12.13
2023-02-22T12:43:28.966Z,17.10
2023-02-22T12:46:06.643Z,13.50
2023-02-22T12:48:45.870Z,15.47
2023-02-22T12:51:19.239Z,16.43
2023-02-22T12:53:55.559Z,15.90
2023-02-22T12:56:51.149Z,16.17
2023-02-22T12:59:28.231Z,16.00
2023-02-22T13:02:28.633Z,15.67
2023-02-22T13:05:00.214Z,15.37
2023-02-22T13:07:50.666Z,12.63
2023-02-22T13:10:41.815Z,12.40
2023-02-22T13:13:24.591Z,12.20
2023-02-22T13:16:08.454Z,16.87
2023-02-22T13:19:05.932Z,18.53
2023-02-22T13:21:49.644Z,17.33
2023-02-22T13:24:26.283Z,17.13
2023-02-22T13:27:05.669Z,15.97
2023-02-22T13:29:38.334Z,12.13
2023-02-22T13:32:27.648Z,17.63
2023-02-22T13:35:23.849Z,15.33
2023-02-22T13:38:14.967Z,13.07
2023-02-22T13:41:12.250Z,15.47
2023-02-22T13:44:08.542Z,11.03
2023-02-22T13:46:58.848Z,15.13
2023-02-22T13:49:37.566Z,12.03
2023-02-22T13:52:17.348Z,13.83
2023-02-22T13:54:51.278Z,17.10
2023-02-22T13:57:22.139Z,12.27
2023-02-22T13:59:48.872Z,13.50
2023-02-22T14:02:52.519Z,14.90
2023-02-22T14:05:50.700Z,7.63
2023-02-22T14:08:17.300Z,15.03
2023-02-22T14:10:43.786Z,12.27
2023-02-22T14:13:11.584Z,11.63
2023-02-22T14:15:58.626Z,12.03
2023-02-22T14:18:49.394Z,10.50
2023-02-22T14:21:22.021Z,13.70
2023-02-22T14:23:53.765Z,11.30
2023-02-22T14:26:29.834Z,16.30
2023-02-22T14:29:08.461Z,16.83
2023-02-22T14:31:41.127Z,14.17
2023-02-22T14:34:11.931Z,14.73
2023-02-22T14:36:46.984Z,13.97
2023-02-22T14:39:24.324Z,16.67
2023-02-22T14:42:17.898Z,14.77
2023-02-22T14:45:12.659Z,15.20
2023-02-22T14:47:49.381Z,13.50
2023-02-22T14:50:43.773Z,14.47
2023-02-22T14:53:13.020Z,17.27
2023-02-22T14:55:57.624Z,16.33
2023-02-22T14:58:40.547Z,12.80
2023-02-22T15:01:21.351Z,12.40
2023-02-22T15:03:53.536Z,17.33
2023-02-22T15:06:28.760Z,11.27
2023-02-22T15:09:25.073Z,17.13
2023-02-22T15:12:05.401Z,11.50
2023-02-22T15:14:44.502Z,11.03
2023-02-22T15:17:21.882Z,14.13
2023-02-22T15:19:49.716Z,11.67
2023-02-22T15:22:26.239Z,14.13
2023-02-22T15:25:07.567Z,14.83
2023-02-22T15:27:37.053Z,11.43
2023-02-22T15:30:16.991Z,12.23
2023-02-22T15:33:01.171Z,14.23
2023-02-22T15:35:30.729Z,13.17
2023-02-22T15:38:07.125Z,11.87
2023-02-22T15:40:35.365Z,13.77
2023-02-22T15:43:05.155Z,15.83
2023-02-22T15:45:32.412Z,16.00
2023-02-22T15:47:59.195Z,13.23
2023-02-22T15:50:33.227Z,15.00
2023-02-22T15:53:03.267Z,10.80
2023-02-22T15:55:39.728Z,11.37
2023-02-22T15:58:28.741Z,17.53
2023-02-22T16:01:05.356Z,15.23
2023-02-22T16:03:48.639Z,14.80
2023-02-22T16:06:37.032Z,16.37
2023-02-22T16:09:17.229Z,15.37
2023-02-22T16:11:46.008Z,17.50
2023-02-22T16:14:31.370Z,13.37
2023-02-22T16:17:29.552Z,14.80
2023-02-22T16:19:58.848Z,15.10
2023-02-22T16:22:34.410Z,20.63
2023-02-22T16:25:19.517Z,9.70
2023-02-22T16:27:47.743Z,13.57
2023-02-22T16:30:25.812Z,17.10
2023-02-22T16:32:55.572Z,13.30
2023-02-22T16:35:28.339Z,11.60
2023-02-22T16:37:59.163Z,13.77
2023-02-22T16:40:34.480Z,13.20
2023-02-22T16:43:04.282Z,13.83
2023-02-22T16:45:30.904Z,10.23
2023-02-22T16:47:59.363Z,10.70
2023-02-22T16:50:25.984Z,14.80
2023-02-22T16:52:55.630Z,8.93
2023-02-22T16:55:22.792Z,12.30
2023-02-22T16:57:50.583Z,13.90
2023-02-22T17:00:37.326Z,13.97
2023-02-22T17:03:05.499Z,13.83
2023-02-22T17:05:36.746Z,14.33
2023-02-22T17:08:05.018Z,15.50
2023-02-22T17:10:31.926Z,10.90
2023-02-22T17:13:01.012Z,13.53
2023-02-22T17:15:35.410Z,11.07
2023-02-22T17:18:04.804Z,9.10
2023-02-22T17:20:31.758Z,11.97
2023-02-22T17:25:45.825Z,12.87
2023-02-22T17:28:13.025Z,10.33
2023-02-22T17:30:39.895Z,16.77
2023-02-22T17:33:09.108Z,12.97
2023-02-22T17:35:37.963Z,15.67
2023-02-22T17:38:08.615Z,13.13
2023-02-22T17:40:39.650Z,11.90
2023-02-22T17:43:10.624Z,10.80
2023-02-22T17:45:41.961Z,13.90
2023-02-22T17:48:17.790Z,8.53
2023-02-22T17:50:46.400Z,10.83
2023-02-22T17:53:13.276Z,14.67
2023-02-22T17:55:41.632Z,13.07
2023-02-22T17:58:14.489Z,11.37
2023-02-22T18:00:47.022Z,12.90
2023-02-22T18:03:16.416Z,13.27
2023-02-22T18:05:49.075Z,9.07
2023-02-22T18:08:16.036Z,10.00
2023-02-22T18:10:43.952Z,13.47
2023-02-22T18:13:16.665Z,14.13
2023-02-22T18:15:43.939Z,13.43
2023-02-22T18:18:10.574Z,13.80
2023-02-22T18:20:43.412Z,8.10
2023-02-22T18:23:17.240Z,11.57
2023-02-22T18:26:09.602Z,8.97
2023-02-22T18:28:37.403Z,10.67
2023-02-22T18:31:14.759Z,11.70
2023-02-22T18:33:46.772Z,15.33
2023-02-22T18:36:14.704Z,12.40
2023-02-22T18:38:43.055Z,11.87
2023-02-22T18:41:13.288Z,12.23
2023-02-22T18:43:40.575Z,8.30
2023-02-22T18:46:13.483Z,8.37
2023-02-22T18:48:40.539Z,8.80
2023-02-22T18:51:12.447Z,11.97
2023-02-22T18:53:41.024Z,11.90
2023-02-22T18:56:10.176Z,10.00
2023-02-22T18:58:38.669Z,13.17
2023-02-22T19:01:06.865Z,9.67
2023-02-22T19:03:37.909Z,13.10
2023-02-22T19:06:10.625Z,9.37
2023-02-22T19:08:39.504Z,11.43
2023-02-22T19:11:09.235Z,8.30
2023-02-22T19:13:36.506Z,9.27
2023-02-22T19:16:04.970Z,11.37
2023-02-22T19:18:31.919Z,6.97
2023-02-22T19:21:00.421Z,7.40
2023-02-22T19:23:28.247Z,9.63
2023-02-22T19:25:55.393Z,9.03
2023-02-22T19:28:28.016Z,7.97
2023-02-22T19:30:57.499Z,13.07
2023-02-22T19:33:26.040Z,11.77
2023-02-22T19:35:52.647Z,9.70
2023-02-22T19:38:19.733Z,10.87
2023-02-22T19:40:46.635Z,11.03
2023-02-22T19:43:14.316Z,9.17
2023-02-22T19:45:41.201Z,9.10
2023-02-22T19:48:07.883Z,11.17
2023-02-22T19:50:34.600Z,9.33
2023-02-22T19:53:01.848Z,11.90
2023-02-22T19:55:32.171Z,9.33
2023-02-22T19:57:59.160Z,8.73
2023-02-22T20:00:27.008Z,9.57
2023-02-22T20:03:05.913Z,12.17
2023-02-22T20:05:33.866Z,14.77
2023-02-22T20:08:00.561Z,9.07
2023-02-22T20:10:27.171Z,11.03
2023-02-22T20:12:53.797Z,15.67
2023-02-22T20:15:23.774Z,8.33
2023-02-22T20:17:51.377Z,13.50
2023-02-22T20:20:18.885Z,11.70
2023-02-22T20:22:45.797Z,18.17
2023-02-22T20:25:13.603Z,7.67
2023-02-22T20:27:45.310Z,13.13
2023-02-22T20:30:18.074Z,10.60
2023-02-22T20:32:48.225Z,11.43
2023-02-22T20:35:16.389Z,12.97
2023-02-22T20:37:43.490Z,12.67
2023-02-22T20:40:10.466Z,13.07
2023-02-22T20:42:37.295Z,14.97
2023-02-22T20:45:09.746Z,10.27
2023-02-22T20:47:37.213Z,12.37
2023-02-22T20:50:05.828Z,11.77
2023-02-22T20:52:36.294Z,13.70
2023-02-22T20:55:04.481Z,12.53
2023-02-22T20:57:31.100Z,11.57
2023-02-22T20:59:57.771Z,13.10
2023-02-22T21:02:27.672Z,13.10
2023-02-22T21:04:54.566Z,15.57
2023-02-22T21:07:22.384Z,10.80
2023-02-22T21:09:49.804Z,14.77
2023-02-22T21:12:16.391Z,16.00
2023-02-22T21:14:44.297Z,15.00
2023-02-22T21:17:10.851Z,13.30
2023-02-22T21:19:38.138Z,12.77
2023-02-22T21:22:08.226Z,12.97
2023-02-22T21:24:36.652Z,14.13
2023-02-22T21:27:06.771Z,13.50
2023-02-22T21:29:35.441Z,15.80
2023-02-22T21:32:02.784Z,15.17
2023-02-22T21:34:29.782Z,16.53
2023-02-22T21:36:56.746Z,16.33
2023-02-22T21:39:28.480Z,13.93
2023-02-22T21:42:00.018Z,19.97
2023-02-22T21:44:27.665Z,16.57
2023-02-22T21:46:54.341Z,22.60
2023-02-22T21:49:24.962Z,13.37
2023-02-22T21:51:52.491Z,15.20
2023-02-22T21:54:19.726Z,17.77
2023-02-22T21:56:49.490Z,16.30
2023-02-22T21:59:19.993Z,17.93
2023-02-22T22:01:55.121Z,14.50
2023-02-22T22:04:27.323Z,15.93
2023-02-22T22:06:56.573Z,17.20
2023-02-22T22:09:24.478Z,15.47
2023-02-22T22:11:58.324Z,18.67
2023-02-22T22:14:27.034Z,20.23
2023-02-22T22:17:01.170Z,17.83
2023-02-22T22:19:33.518Z,16.10
2023-02-22T22:22:00.851Z,16.37
2023-02-22T22:24:31.902Z,20.17
2023-02-22T22:27:03.859Z,14.73
2023-02-22T22:29:30.888Z,21.93
2023-02-22T22:31:57.555Z,18.27
2023-02-22T22:34:24.343Z,20.53
2023-02-22T22:36:51.067Z,22.53
2023-02-22T22:39:20.783Z,22.87
2023-02-22T22:41:48.123Z,20.93
2023-02-22T22:44:16.298Z,19.00
2023-02-22T22:46:48.456Z,17.60
2023-02-22T22:49:18.377Z,16.77
2023-02-22T22:51:47.583Z,22.00
2023-02-22T22:54:14.735Z,19.17
2023-02-22T22:56:41.470Z,18.80
2023-02-22T22:59:09.533Z,19.80
2023-02-22T23:01:44.203Z,20.77
2023-02-22T23:04:17.701Z,20.43
2023-02-22T23:06:52.350Z,24.00
2023-02-22T23:09:28.275Z,23.60
2023-02-22T23:11:57.675Z,16.27
2023-02-22T23:14:31.169Z,20.03
2023-02-22T23:17:03.098Z,23.70
2023-02-22T23:19:35.118Z,23.40
2023-02-22T23:22:05.165Z,27.17
2023-02-22T23:24:36.074Z,20.33
2023-02-22T23:27:07.041Z,19.97
2023-02-22T23:29:37.629Z,27.33
2023-02-22T23:32:05.939Z,26.53
2023-02-22T23:34:33.860Z,22.30
2023-02-22T23:37:00.425Z,24.77
2023-02-22T23:39:27.698Z,22.53
2023-02-22T23:41:59.125Z,23.47
2023-02-22T23:44:27.187Z,27.00
2023-02-22T23:46:56.873Z,26.27
2023-02-22T23:49:26.425Z,20.73
2023-02-22T23:51:53.368Z,21.97
2023-02-22T23:54:21.136Z,25.10
2023-02-22T23:56:56.256Z,24.73
2023-02-22T23:59:27.093Z,26.23
